createdAt,value
2016-08-05T00:00:01.618Z,18.6
2016-08-05T00:01:01.629Z,18.52
2016-08-05T00:02:16.587Z,18.54
2016-08-05T00:03:01.690Z,18.54
2016-08-05T00:04:01.713Z,18.55
2016-08-05T00:05:01.738Z,18.51
2016-08-05T00:06:01.766Z,18.51
2016-08-05T00:07:01.791Z,18.57
2016-08-05T00:08:01.821Z,18.58
2016-08-05T00:09:01.851Z,18.57
2016-08-05T00:11:01.899Z,18.57
2016-08-05T00:12:01.927Z,18.65
2016-08-05T00:13:01.952Z,18.63
2016-08-05T00:14:01.988Z,18.6
2016-08-05T00:15:02.009Z,18.6
2016-08-05T00:16:02.040Z,18.69
2016-08-05T00:17:16.983Z,18.63
2016-08-05T00:18:02.093Z,18.7
2016-08-05T00:19:02.119Z,18.72
2016-08-05T00:21:02.163Z,18.67
2016-08-05T00:22:02.190Z,18.67
2016-08-05T00:23:02.218Z,18.6
2016-08-05T00:24:02.302Z,18.62
2016-08-05T00:25:02.269Z,18.7
2016-08-05T00:26:02.996Z,18.73
2016-08-05T00:27:02.326Z,18.7
2016-08-05T00:28:02.348Z,18.76
2016-08-05T00:29:02.378Z,18.73
2016-08-05T00:30:02.410Z,18.75
2016-08-05T00:31:02.430Z,18.67
2016-08-05T00:32:02.466Z,18.66
2016-08-05T00:33:17.408Z,18.66
2016-08-05T00:34:17.433Z,18.69
2016-08-05T00:36:02.570Z,18.73
2016-08-05T00:37:02.591Z,18.62
2016-08-05T00:38:02.616Z,18.65
2016-08-05T00:39:02.647Z,18.63
2016-08-05T00:40:02.673Z,18.58
2016-08-05T00:41:02.695Z,18.57
2016-08-05T00:42:02.777Z,18.54
2016-08-05T00:43:02.752Z,18.57
2016-08-05T00:44:02.776Z,18.44
2016-08-05T00:45:02.808Z,18.51
2016-08-05T00:46:17.756Z,18.41
2016-08-05T00:48:02.878Z,18.33
2016-08-05T00:49:17.830Z,18.45
2016-08-05T00:50:02.940Z,18.42
2016-08-05T00:51:02.963Z,18.42
2016-08-05T00:52:02.997Z,18.35
2016-08-05T00:53:03.018Z,18.37
2016-08-05T00:54:03.055Z,18.36
2016-08-05T00:55:03.069Z,18.41
2016-08-05T00:56:03.092Z,18.39
2016-08-05T00:57:18.052Z,18.42
2016-08-05T00:58:03.155Z,18.41
2016-08-05T01:00:03.198Z,18.32
2016-08-05T01:01:03.237Z,18.35
2016-08-05T01:02:03.265Z,18.36
2016-08-05T01:03:18.202Z,18.44
2016-08-05T01:04:03.307Z,18.26
2016-08-05T01:05:18.256Z,18.26
2016-08-05T01:06:03.354Z,18.3
2016-08-05T01:07:18.306Z,18.3
2016-08-05T01:09:03.441Z,18.29
2016-08-05T01:10:03.476Z,18.3
2016-08-05T01:11:03.488Z,18.42
2016-08-05T01:12:03.516Z,18.44
2016-08-05T01:13:04.246Z,18.37
2016-08-05T01:15:03.589Z,18.35
2016-08-05T01:16:03.613Z,18.33
2016-08-05T01:17:03.645Z,18.3
2016-08-05T01:18:03.671Z,18.42
2016-08-05T01:19:03.800Z,18.3
2016-08-05T01:20:03.725Z,18.41
2016-08-05T01:21:18.677Z,18.33
2016-08-05T01:23:03.808Z,18.29
2016-08-05T01:24:03.832Z,18.2
2016-08-05T01:25:03.869Z,18.14
2016-08-05T01:26:03.881Z,18.18
2016-08-05T01:27:03.907Z,18.17
2016-08-05T01:28:03.934Z,18.14
2016-08-05T01:29:03.964Z,18.11
2016-08-05T01:30:03.986Z,18.08
2016-08-05T01:31:04.013Z,18.11
2016-08-05T01:32:04.037Z,18.08
2016-08-05T01:33:04.069Z,18.02
2016-08-05T01:34:04.094Z,17.89
2016-08-05T01:35:04.120Z,17.92
2016-08-05T01:36:04.154Z,17.95
2016-08-05T01:37:19.093Z,17.9
2016-08-05T01:38:04.191Z,17.9
2016-08-05T01:39:04.229Z,17.79
2016-08-05T01:40:04.256Z,17.74
2016-08-05T01:41:04.279Z,17.78
2016-08-05T01:42:04.303Z,17.79
2016-08-05T01:43:04.336Z,17.74
2016-08-05T01:44:04.350Z,17.81
2016-08-05T01:45:04.384Z,17.82
2016-08-05T01:46:04.402Z,17.79
2016-08-05T01:47:04.437Z,17.79
2016-08-05T01:48:04.465Z,17.78
2016-08-05T01:49:04.484Z,17.79
2016-08-05T01:50:04.509Z,17.81
2016-08-05T01:51:19.466Z,17.82
2016-08-05T01:52:19.491Z,17.82
2016-08-05T01:53:04.593Z,17.77
2016-08-05T01:54:04.624Z,17.78
2016-08-05T01:55:04.644Z,17.78
2016-08-05T01:56:04.674Z,17.81
2016-08-05T01:57:04.704Z,17.7
2016-08-05T01:58:04.718Z,17.75
2016-08-05T01:59:04.755Z,17.78
2016-08-05T02:00:04.827Z,17.7
2016-08-05T02:01:04.799Z,17.75
2016-08-05T02:02:04.824Z,17.74
2016-08-05T02:03:04.852Z,17.79
2016-08-05T02:04:04.883Z,17.74
2016-08-05T02:05:19.835Z,17.71
2016-08-05T02:06:04.938Z,17.7
2016-08-05T02:07:04.961Z,17.77
2016-08-05T02:08:04.985Z,17.77
2016-08-05T02:09:05.018Z,17.81
2016-08-05T02:10:05.040Z,17.72
2016-08-05T02:11:05.066Z,17.71
2016-08-05T02:12:05.094Z,17.71
2016-08-05T02:13:05.113Z,17.79
2016-08-05T02:14:05.147Z,17.64
2016-08-05T02:16:05.194Z,17.7
2016-08-05T02:17:05.223Z,17.62
2016-08-05T02:19:05.275Z,17.68
2016-08-05T02:20:05.304Z,17.72
2016-08-05T02:21:05.332Z,17.75
2016-08-05T02:22:05.360Z,17.77
2016-08-05T02:23:05.381Z,17.82
2016-08-05T02:24:20.329Z,17.75
2016-08-05T02:25:05.431Z,17.74
2016-08-05T02:26:05.511Z,17.71
2016-08-05T02:28:05.512Z,17.71
2016-08-05T02:29:05.536Z,17.71
2016-08-05T02:31:05.593Z,17.66
2016-08-05T02:32:05.615Z,17.55
2016-08-05T02:33:05.641Z,17.59
2016-08-05T02:34:05.661Z,17.56
2016-08-05T02:35:05.698Z,17.66
2016-08-05T02:36:05.716Z,17.56
2016-08-05T02:37:20.669Z,17.52
2016-08-05T02:38:05.773Z,17.56
2016-08-05T02:39:05.817Z,17.49
2016-08-05T02:40:20.749Z,17.54
2016-08-05T02:41:05.859Z,17.52
2016-08-05T02:42:20.799Z,17.44
2016-08-05T02:43:05.904Z,17.49
2016-08-05T02:44:05.932Z,17.44
2016-08-05T02:45:06.000Z,17.43
2016-08-05T02:46:05.981Z,17.26
2016-08-05T02:47:06.007Z,17.3
2016-08-05T02:48:06.029Z,17.25
2016-08-05T02:49:06.063Z,17.26
2016-08-05T02:50:06.082Z,17.25
2016-08-05T02:51:06.159Z,17.19
2016-08-05T02:52:06.142Z,17.16
2016-08-05T02:53:06.160Z,17.19
2016-08-05T02:54:06.195Z,17.28
2016-08-05T02:55:21.137Z,17.18
2016-08-05T02:56:21.160Z,17.18
2016-08-05T02:57:06.260Z,17.26
2016-08-05T02:58:06.292Z,17.15
2016-08-05T02:59:06.319Z,17.19
2016-08-05T03:00:06.346Z,17.22
2016-08-05T03:01:06.376Z,17.21
2016-08-05T03:02:06.400Z,17.14
2016-08-05T03:03:06.427Z,17.07
2016-08-05T03:04:06.443Z,17.01
2016-08-05T03:05:06.478Z,17.08
2016-08-05T03:06:06.503Z,17.01
2016-08-05T03:07:06.522Z,17.08
2016-08-05T03:08:06.551Z,17.07
2016-08-05T03:09:06.581Z,17.06
2016-08-05T03:10:06.609Z,17.04
2016-08-05T03:11:06.639Z,17.14
2016-08-05T03:12:21.576Z,17.12
2016-08-05T03:13:06.679Z,17.03
2016-08-05T03:14:06.707Z,17.03
2016-08-05T03:15:06.741Z,17.15
2016-08-05T03:16:06.757Z,17.01
2016-08-05T03:17:06.786Z,17.04
2016-08-05T03:18:06.815Z,17.06
2016-08-05T03:19:06.840Z,17
2016-08-05T03:20:06.864Z,16.96
2016-08-05T03:21:06.887Z,17.07
2016-08-05T03:23:06.936Z,16.97
2016-08-05T03:24:06.974Z,16.96
2016-08-05T03:25:06.992Z,16.93
2016-08-05T03:26:21.946Z,16.82
2016-08-05T03:27:21.972Z,16.91
2016-08-05T03:28:07.072Z,16.86
2016-08-05T03:29:07.100Z,16.71
2016-08-05T03:30:07.123Z,16.7
2016-08-05T03:31:07.146Z,16.7
2016-08-05T03:32:07.182Z,16.71
2016-08-05T03:33:07.201Z,16.7
2016-08-05T03:34:07.234Z,16.81
2016-08-05T03:35:07.255Z,16.78
2016-08-05T03:36:07.282Z,16.73
2016-08-05T03:37:07.300Z,16.78
2016-08-05T03:38:07.336Z,16.7
2016-08-05T03:39:07.359Z,16.71
2016-08-05T03:40:07.432Z,16.78
2016-08-05T03:41:22.331Z,16.7
2016-08-05T03:43:07.451Z,16.67
2016-08-05T03:44:22.407Z,16.66
2016-08-05T03:45:07.517Z,16.6
2016-08-05T03:47:07.907Z,16.52
2016-08-05T03:48:07.586Z,16.46
2016-08-05T03:49:07.612Z,16.52
2016-08-05T03:50:07.644Z,16.5
2016-08-05T03:51:07.663Z,16.46
2016-08-05T03:52:07.691Z,16.56
2016-08-05T03:53:07.719Z,16.49
2016-08-05T03:54:07.736Z,16.52
2016-08-05T03:55:07.780Z,16.5
2016-08-05T03:56:07.791Z,16.52
2016-08-05T03:59:22.794Z,16.6
2016-08-05T04:00:07.898Z,16.58
2016-08-05T04:01:07.927Z,16.56
2016-08-05T04:02:07.955Z,16.64
2016-08-05T04:03:07.975Z,16.61
2016-08-05T04:04:08.051Z,16.56
2016-08-05T04:05:08.724Z,16.61
2016-08-05T04:06:08.057Z,16.52
2016-08-05T04:07:08.082Z,16.58
2016-08-05T04:08:08.116Z,16.61
2016-08-05T04:09:08.133Z,16.64
2016-08-05T04:11:08.179Z,16.52
2016-08-05T04:12:08.206Z,16.5
2016-08-05T04:13:08.228Z,16.58
2016-08-05T04:14:08.255Z,16.5
2016-08-05T04:15:23.204Z,16.58
2016-08-05T04:16:23.231Z,16.63
2016-08-05T04:17:08.339Z,16.61
2016-08-05T04:18:08.361Z,16.6
2016-08-05T04:19:08.384Z,16.63
2016-08-05T04:20:08.409Z,16.61
2016-08-05T04:22:08.466Z,16.56
2016-08-05T04:23:08.489Z,16.58
2016-08-05T04:24:08.512Z,16.53
2016-08-05T04:25:08.534Z,16.63
2016-08-05T04:26:08.581Z,16.71
2016-08-05T04:27:08.594Z,16.73
2016-08-05T04:28:23.541Z,16.73
2016-08-05T04:29:08.645Z,16.67
2016-08-05T04:31:23.620Z,16.75
2016-08-05T04:32:08.712Z,16.76
2016-08-05T04:33:08.752Z,16.79
2016-08-05T04:34:08.767Z,16.79
2016-08-05T04:35:08.791Z,16.68
2016-08-05T04:36:08.824Z,16.64
2016-08-05T04:37:08.846Z,16.53
2016-08-05T04:38:08.864Z,16.57
2016-08-05T04:39:08.895Z,16.49
2016-08-05T04:40:08.922Z,16.46
2016-08-05T04:41:08.959Z,16.56
2016-08-05T04:42:08.973Z,16.49
2016-08-05T04:43:09.004Z,16.56
2016-08-05T04:44:09.024Z,16.52
2016-08-05T04:46:09.082Z,16.6
2016-08-05T04:47:24.028Z,16.52
2016-08-05T04:48:09.179Z,16.53
2016-08-05T04:49:09.162Z,16.49
2016-08-05T04:52:09.224Z,16.42
2016-08-05T04:53:09.307Z,16.49
2016-08-05T04:54:09.286Z,16.3
2016-08-05T04:55:09.312Z,16.33
2016-08-05T04:56:09.334Z,16.42
2016-08-05T04:57:09.359Z,16.38
2016-08-05T04:58:09.382Z,16.46
2016-08-05T04:59:09.413Z,16.41
2016-08-05T05:00:09.447Z,16.52
2016-08-05T05:01:09.468Z,16.5
2016-08-05T05:02:24.460Z,16.56
2016-08-05T05:03:09.513Z,16.48
2016-08-05T05:04:24.460Z,16.53
2016-08-05T05:05:09.572Z,16.48
2016-08-05T05:06:09.596Z,16.5
2016-08-05T05:07:09.814Z,16.53
2016-08-05T05:08:09.641Z,16.52
2016-08-05T05:09:09.667Z,16.57
2016-08-05T05:10:09.690Z,16.57
2016-08-05T05:12:09.741Z,16.42
2016-08-05T05:13:09.771Z,16.56
2016-08-05T05:14:09.798Z,16.49
2016-08-05T05:15:09.818Z,16.35
2016-08-05T05:16:09.843Z,16.33
2016-08-05T05:17:09.876Z,16.3
2016-08-05T05:18:09.898Z,16.34
2016-08-05T05:19:09.917Z,16.43
2016-08-05T05:20:09.948Z,16.31
2016-08-05T05:21:09.977Z,16.35
2016-08-05T05:22:10.001Z,16.28
2016-08-05T05:23:10.038Z,16.3
2016-08-05T05:24:10.048Z,16.33
2016-08-05T05:25:10.086Z,16.39
2016-08-05T05:26:10.104Z,16.35
2016-08-05T05:27:10.128Z,16.28
2016-08-05T05:28:10.153Z,16.25
2016-08-05T05:29:10.185Z,16.39
2016-08-05T05:30:10.209Z,16.43
2016-08-05T05:32:10.252Z,16.41
2016-08-05T05:34:25.234Z,16.33
2016-08-05T05:35:10.331Z,16.33
2016-08-05T05:36:10.365Z,16.41
2016-08-05T05:37:10.386Z,16.3
2016-08-05T05:39:10.430Z,16.41
2016-08-05T05:40:10.456Z,16.34
2016-08-05T05:41:10.485Z,16.28
2016-08-05T05:42:10.514Z,16.3
2016-08-05T05:43:10.535Z,16.35
2016-08-05T05:44:10.566Z,16.3
2016-08-05T05:45:10.589Z,16.27
2016-08-05T05:46:10.618Z,16.28
2016-08-05T05:48:10.715Z,16.27
2016-08-05T05:49:10.696Z,16.34
2016-08-05T05:50:25.643Z,16.39
2016-08-05T05:51:25.667Z,16.34
2016-08-05T05:52:10.769Z,16.38
2016-08-05T05:53:10.792Z,16.39
2016-08-05T05:54:10.820Z,16.48
2016-08-05T05:55:10.844Z,16.46
2016-08-05T05:57:10.901Z,16.57
2016-08-05T05:58:10.926Z,16.49
2016-08-05T05:59:10.948Z,16.56
2016-08-05T06:00:10.976Z,16.57
2016-08-05T06:01:11.001Z,16.48
2016-08-05T06:03:25.978Z,16.42
2016-08-05T06:04:11.126Z,16.39
2016-08-05T06:06:26.054Z,16.43
2016-08-05T06:07:11.161Z,16.41
2016-08-05T06:08:11.182Z,16.31
2016-08-05T06:09:11.214Z,16.35
2016-08-05T06:10:11.227Z,16.43
2016-08-05T06:11:12.183Z,16.46
2016-08-05T06:12:11.284Z,16.41
2016-08-05T06:13:11.318Z,16.53
2016-08-05T06:14:11.334Z,16.48
2016-08-05T06:15:11.355Z,16.48
2016-08-05T06:16:11.390Z,16.48
2016-08-05T06:17:11.414Z,16.45
2016-08-05T06:18:11.431Z,16.49
2016-08-05T06:19:11.470Z,16.43
2016-08-05T06:20:11.493Z,16.52
2016-08-05T06:21:11.514Z,16.52
2016-08-05T06:22:26.467Z,16.53
2016-08-05T06:23:11.565Z,16.53
2016-08-05T06:24:11.598Z,16.7
2016-08-05T06:25:11.616Z,16.64
2016-08-05T06:27:11.673Z,16.67
2016-08-05T06:28:11.706Z,16.66
2016-08-05T06:29:11.718Z,16.64
2016-08-05T06:30:11.748Z,16.68
2016-08-05T06:31:11.768Z,16.76
2016-08-05T06:32:11.806Z,16.86
2016-08-05T06:33:11.820Z,16.86
2016-08-05T06:34:26.779Z,16.83
2016-08-05T06:35:11.881Z,16.85
2016-08-05T06:36:11.898Z,16.97
2016-08-05T06:37:26.857Z,17.08
2016-08-05T06:38:26.874Z,17
2016-08-05T06:39:11.972Z,16.98
2016-08-05T06:40:12.005Z,17.06
2016-08-05T06:42:12.061Z,17.12
2016-08-05T06:43:12.079Z,17.14
2016-08-05T06:44:12.107Z,17.16
2016-08-05T06:45:12.136Z,17.14
2016-08-05T06:46:12.160Z,17.16
2016-08-05T06:47:27.115Z,17.18
2016-08-05T06:48:12.208Z,17.14
2016-08-05T06:49:12.233Z,17.31
2016-08-05T06:50:27.189Z,17.3
2016-08-05T06:51:12.287Z,17.26
2016-08-05T06:52:27.238Z,17.26
2016-08-05T06:53:12.346Z,17.25
2016-08-05T06:54:12.368Z,17.28
2016-08-05T06:55:12.401Z,17.25
2016-08-05T06:57:12.445Z,17.16
2016-08-05T06:58:12.469Z,17.22
2016-08-05T06:59:12.505Z,17.28
2016-08-05T07:00:12.525Z,17.26
2016-08-05T07:01:12.551Z,17.22
2016-08-05T07:02:12.579Z,17.34
2016-08-05T07:03:12.598Z,17.44
2016-08-05T07:04:12.624Z,17.56
2016-08-05T07:05:12.658Z,17.48
2016-08-05T07:06:12.685Z,17.48
2016-08-05T07:07:13.408Z,17.56
2016-08-05T07:08:12.736Z,17.63
2016-08-05T07:09:27.682Z,17.58
2016-08-05T07:10:12.783Z,17.51
2016-08-05T07:12:12.839Z,17.7
2016-08-05T07:14:12.906Z,17.55
2016-08-05T07:15:12.909Z,17.62
2016-08-05T07:16:12.936Z,17.59
2016-08-05T07:17:12.983Z,17.75
2016-08-05T07:18:12.993Z,17.68
2016-08-05T07:19:13.016Z,17.59
2016-08-05T07:20:13.039Z,17.62
2016-08-05T07:21:13.072Z,17.74
2016-08-05T07:22:13.092Z,17.64
2016-08-05T07:24:13.148Z,17.64
2016-08-05T07:25:28.096Z,17.75
2016-08-05T07:26:13.200Z,17.75
2016-08-05T07:27:28.147Z,17.75
2016-08-05T07:28:13.251Z,17.78
2016-08-05T07:29:13.277Z,17.79
2016-08-05T07:30:13.375Z,17.86
2016-08-05T07:31:13.327Z,17.82
2016-08-05T07:32:13.354Z,17.86
2016-08-05T07:34:13.404Z,17.79
2016-08-05T07:35:13.432Z,17.86
2016-08-05T07:36:13.465Z,17.89
2016-08-05T07:37:13.490Z,17.82
2016-08-05T07:38:13.524Z,17.86
2016-08-05T07:39:13.538Z,17.74
2016-08-05T07:42:13.629Z,17.81
2016-08-05T07:43:13.645Z,17.72
2016-08-05T07:44:13.674Z,17.77
2016-08-05T07:45:13.693Z,17.82
2016-08-05T07:46:13.720Z,17.81
2016-08-05T07:47:13.747Z,17.84
2016-08-05T07:48:13.773Z,17.84
2016-08-05T07:49:13.802Z,17.78
2016-08-05T07:50:13.829Z,17.75
2016-08-05T07:52:13.878Z,17.81
2016-08-05T07:53:13.902Z,17.84
2016-08-05T07:54:13.930Z,17.87
2016-08-05T07:55:13.966Z,17.89
2016-08-05T07:56:13.989Z,17.89
2016-08-05T07:57:28.935Z,17.95
2016-08-05T07:58:14.037Z,17.89
2016-08-05T07:59:14.064Z,17.9
2016-08-05T08:00:14.095Z,17.84
2016-08-05T08:01:14.128Z,17.81
2016-08-05T08:02:14.139Z,17.87
2016-08-05T08:03:14.161Z,17.84
2016-08-05T08:04:14.197Z,17.81
2016-08-05T08:05:14.222Z,17.95
2016-08-05T08:06:14.251Z,17.84
2016-08-05T08:07:14.274Z,17.9
2016-08-05T08:08:14.304Z,17.99
2016-08-05T08:09:14.326Z,18
2016-08-05T08:10:14.354Z,18.08
2016-08-05T08:11:14.377Z,18.12
2016-08-05T08:12:29.329Z,18.25
2016-08-05T08:13:14.435Z,18.23
2016-08-05T08:14:14.467Z,18.23
2016-08-05T08:15:14.484Z,18.26
2016-08-05T08:16:14.511Z,18.27
2016-08-05T08:17:15.239Z,18.23
2016-08-05T08:19:14.588Z,18.25
2016-08-05T08:20:14.612Z,18.25
2016-08-05T08:21:14.637Z,18.1
2016-08-05T08:22:14.715Z,18.14
2016-08-05T08:23:14.702Z,18.12
2016-08-05T08:24:14.721Z,18.1
2016-08-05T08:26:14.772Z,18.12
2016-08-05T08:27:14.804Z,18.14
2016-08-05T08:28:14.879Z,18.15
2016-08-05T08:29:14.862Z,18.25
2016-08-05T08:30:14.933Z,18.26
2016-08-05T08:31:14.897Z,18.29
2016-08-05T08:32:14.933Z,18.26
2016-08-05T08:33:14.957Z,18.41
2016-08-05T08:34:14.986Z,18.48
2016-08-05T08:35:15.014Z,18.41
2016-08-05T08:36:15.735Z,18.48
2016-08-05T08:37:15.057Z,18.48
2016-08-05T08:38:15.091Z,18.57
2016-08-05T08:39:15.111Z,18.6
2016-08-05T08:40:15.151Z,18.66
2016-08-05T08:41:30.091Z,18.62
2016-08-05T08:43:15.221Z,18.76
2016-08-05T08:44:30.171Z,18.85
2016-08-05T08:45:30.195Z,18.91
2016-08-05T08:46:30.222Z,19.06
2016-08-05T08:47:15.322Z,19.08
2016-08-05T08:48:15.355Z,19
2016-08-05T08:49:15.377Z,18.95
2016-08-05T08:50:15.402Z,19.07
2016-08-05T08:51:30.362Z,19.14
2016-08-05T08:52:15.456Z,19.14
2016-08-05T08:53:15.483Z,19.32
2016-08-05T08:54:15.512Z,19.39
2016-08-05T08:55:15.546Z,19.44
2016-08-05T08:56:15.582Z,19.23
2016-08-05T08:57:15.585Z,19.37
2016-08-05T08:58:15.619Z,19.33
2016-08-05T08:59:15.643Z,19.54
2016-08-05T09:00:30.596Z,19.62
2016-08-05T09:01:15.719Z,19.68
2016-08-05T09:02:15.726Z,19.62
2016-08-05T09:03:15.758Z,19.66
2016-08-05T09:04:15.780Z,19.61
2016-08-05T09:05:15.806Z,19.73
2016-08-05T09:06:15.834Z,19.74
2016-08-05T09:07:15.853Z,19.69
2016-08-05T09:08:15.895Z,19.77
2016-08-05T09:09:15.918Z,19.92
2016-08-05T09:10:15.935Z,19.76
2016-08-05T09:11:15.966Z,19.94
2016-08-05T09:12:15.997Z,19.92
2016-08-05T09:13:16.023Z,19.92
2016-08-05T09:14:16.043Z,19.96
2016-08-05T09:15:16.080Z,20.06
2016-08-05T09:16:31.022Z,20.05
2016-08-05T09:17:16.138Z,20.13
2016-08-05T09:18:16.852Z,20.11
2016-08-05T09:19:16.185Z,20.05
2016-08-05T09:20:16.215Z,20.13
2016-08-05T09:21:16.248Z,20.01
2016-08-05T09:22:16.264Z,19.98
2016-08-05T09:23:16.293Z,20.01
2016-08-05T09:24:16.319Z,19.99
2016-08-05T09:25:16.342Z,20.13
2016-08-05T09:26:16.381Z,20.17
2016-08-05T09:27:17.102Z,20.16
2016-08-05T09:28:31.356Z,20.2
2016-08-05T09:29:31.384Z,20.26
2016-08-05T09:30:16.491Z,20.35
2016-08-05T09:31:16.513Z,20.28
2016-08-05T09:32:31.459Z,20.29
2016-08-05T09:33:16.574Z,20.38
2016-08-05T09:34:16.593Z,20.42
2016-08-05T09:35:16.621Z,20.42
2016-08-05T09:36:16.646Z,20.43
2016-08-05T09:37:16.672Z,20.51
2016-08-05T09:38:16.702Z,20.64
2016-08-05T09:39:16.722Z,20.66
2016-08-05T09:40:16.753Z,20.57
2016-08-05T09:41:16.784Z,20.66
2016-08-05T09:42:16.811Z,20.72
2016-08-05T09:43:16.837Z,20.87
2016-08-05T09:44:16.863Z,20.97
2016-08-05T09:45:31.817Z,21.01
2016-08-05T09:46:16.927Z,21.12
2016-08-05T09:47:31.870Z,21.16
2016-08-05T09:48:16.978Z,21.03
2016-08-05T09:49:17.003Z,21.17
2016-08-05T09:50:17.034Z,21.31
2016-08-05T09:51:17.064Z,21.34
2016-08-05T09:52:17.093Z,21.38
2016-08-05T09:53:17.112Z,21.56
2016-08-05T09:54:17.143Z,21.64
2016-08-05T09:55:17.174Z,21.58
2016-08-05T09:56:17.196Z,21.75
2016-08-05T09:57:17.225Z,21.82
2016-08-05T09:58:17.256Z,22.02
2016-08-05T09:59:32.209Z,21.98
2016-08-05T10:01:17.347Z,22.17
2016-08-05T10:02:17.373Z,22.24
2016-08-05T10:03:32.317Z,22.36
2016-08-05T10:04:32.345Z,22.47
2016-08-05T10:06:18.180Z,22.45
2016-08-05T10:08:17.539Z,22.27
2016-08-05T10:09:17.566Z,22.25
2016-08-05T10:10:17.613Z,22.33
2016-08-05T10:11:17.634Z,22.25
2016-08-05T10:12:17.645Z,22.3
2016-08-05T10:13:17.674Z,22.36
2016-08-05T10:14:17.716Z,22.35
2016-08-05T10:15:17.734Z,22.45
2016-08-05T10:16:17.769Z,22.45
2016-08-05T10:18:17.816Z,22.46
2016-08-05T10:19:32.778Z,22.57
2016-08-05T10:20:17.878Z,22.57
2016-08-05T10:21:17.911Z,22.7
2016-08-05T10:22:17.934Z,22.72
2016-08-05T10:23:17.974Z,22.77
2016-08-05T10:24:17.993Z,22.75
2016-08-05T10:25:18.021Z,22.77
2016-08-05T10:26:18.052Z,22.72
2016-08-05T10:27:18.083Z,22.72
2016-08-05T10:28:18.129Z,22.82
2016-08-05T10:29:18.137Z,22.91
2016-08-05T10:30:18.168Z,22.95
2016-08-05T10:31:33.174Z,23.15
2016-08-05T10:32:33.155Z,23.2
2016-08-05T10:33:18.260Z,23.32
2016-08-05T10:34:18.284Z,23.48
2016-08-05T10:35:33.240Z,23.55
2016-08-05T10:36:18.350Z,23.5
2016-08-05T10:37:18.375Z,23.38
2016-08-05T10:38:18.402Z,23.35
2016-08-05T10:39:18.423Z,23.55
2016-08-05T10:40:18.458Z,23.43
2016-08-05T10:41:18.484Z,23.53
2016-08-05T10:42:18.518Z,23.47
2016-08-05T10:43:18.549Z,23.54
2016-08-05T10:44:18.585Z,23.6
2016-08-05T10:45:18.600Z,23.6
2016-08-05T10:46:18.635Z,23.51
2016-08-05T10:47:18.667Z,23.6
2016-08-05T10:48:18.687Z,23.75
2016-08-05T10:49:18.725Z,23.8
2016-08-05T10:50:18.744Z,23.8
2016-08-05T10:51:33.705Z,23.98
2016-08-05T10:52:18.805Z,24.2
2016-08-05T10:54:18.868Z,24.39
2016-08-05T10:55:18.892Z,24.28
2016-08-05T10:56:18.944Z,24.46
2016-08-05T10:57:18.954Z,24.3
2016-08-05T10:58:18.983Z,23.84
2016-08-05T10:59:19.028Z,23.4
2016-08-05T11:00:19.046Z,23.17
2016-08-05T11:01:19.071Z,23.35
2016-08-05T11:02:19.806Z,23.55
2016-08-05T11:03:19.134Z,23.78
2016-08-05T11:04:19.160Z,24.03
2016-08-05T11:05:19.202Z,24.15
2016-08-05T11:06:19.215Z,24.15
2016-08-05T11:07:34.178Z,24.27
2016-08-05T11:08:19.278Z,24.39
2016-08-05T11:09:19.316Z,24.6
2016-08-05T11:10:19.346Z,24.69
2016-08-05T11:11:19.376Z,24.87
2016-08-05T11:12:19.403Z,25
2016-08-05T11:13:19.426Z,25.17
2016-08-05T11:14:19.462Z,25.13
2016-08-05T11:15:19.497Z,25.23
2016-08-05T11:16:19.525Z,25.2
2016-08-05T11:17:19.548Z,25.17
2016-08-05T11:18:19.579Z,25.24
2016-08-05T11:19:20.312Z,25.15
2016-08-05T11:20:19.634Z,25.09
2016-08-05T11:21:19.676Z,25.08
2016-08-05T11:22:34.626Z,25.17
2016-08-05T11:23:19.737Z,24.91
2016-08-05T11:24:19.762Z,24.93
2016-08-05T11:25:19.792Z,25.08
2016-08-05T11:26:19.823Z,25.24
2016-08-05T11:27:19.857Z,25.61
2016-08-05T11:28:19.883Z,25.69
2016-08-05T11:29:19.911Z,25.52
2016-08-05T11:30:19.940Z,25.39
2016-08-05T11:31:19.979Z,25.23
2016-08-05T11:32:20.002Z,25.08
2016-08-05T11:33:20.035Z,25.05
2016-08-05T11:34:20.065Z,24.93
2016-08-05T11:35:20.093Z,24.95
2016-08-05T11:36:20.171Z,25.09
2016-08-05T11:37:20.157Z,24.87
2016-08-05T11:38:35.109Z,24.8
2016-08-05T11:39:20.220Z,24.87
2016-08-05T11:40:20.244Z,24.78
2016-08-05T11:41:20.285Z,24.77
2016-08-05T11:42:20.409Z,24.98
2016-08-05T11:43:20.337Z,24.93
2016-08-05T11:44:20.367Z,24.96
2016-08-05T11:45:20.397Z,24.96
2016-08-05T11:46:20.426Z,24.77
2016-08-05T11:47:20.449Z,24.57
2016-08-05T11:49:20.517Z,24.52
2016-08-05T11:50:20.549Z,24.68
2016-08-05T11:51:20.573Z,24.78
2016-08-05T11:52:20.609Z,24.99
2016-08-05T11:53:35.559Z,25.18
2016-08-05T11:54:35.586Z,25.13
2016-08-05T11:55:20.694Z,25.1
2016-08-05T11:56:20.730Z,25.06
2016-08-05T11:57:20.762Z,25.06
2016-08-05T11:58:20.784Z,25.1
2016-08-05T11:59:20.817Z,25.08
2016-08-05T12:00:20.852Z,25.21
2016-08-05T12:01:20.882Z,25.14
2016-08-05T12:02:20.906Z,25.1
2016-08-05T12:03:20.942Z,25.06
2016-08-05T12:04:20.960Z,25.13
2016-08-05T12:05:35.923Z,25.27
2016-08-05T12:06:21.021Z,25.23
2016-08-05T12:07:21.050Z,25.2
2016-08-05T12:08:21.100Z,25.08
2016-08-05T12:09:21.111Z,24.98
2016-08-05T12:10:36.075Z,24.93
2016-08-05T12:11:21.189Z,25.06
2016-08-05T12:12:21.204Z,25.13
2016-08-05T12:13:21.256Z,25.08
2016-08-05T12:15:21.296Z,25.08
2016-08-05T12:16:21.329Z,24.96
2016-08-05T12:17:21.358Z,24.98
2016-08-05T12:18:21.389Z,25.03
2016-08-05T12:19:21.419Z,24.91
2016-08-05T12:20:21.451Z,25.06
2016-08-05T12:21:21.479Z,25.21
2016-08-05T12:22:36.435Z,25.05
2016-08-05T12:23:21.536Z,25.13
2016-08-05T12:24:21.563Z,25.05
2016-08-05T12:25:21.607Z,25.1
2016-08-05T12:26:36.551Z,25.17
2016-08-05T12:28:21.693Z,25.13
2016-08-05T12:29:21.722Z,25.3
2016-08-05T12:31:21.787Z,25.27
2016-08-05T12:32:21.809Z,25.25
2016-08-05T12:33:21.843Z,25.33
2016-08-05T12:34:21.872Z,25.39
2016-08-05T12:35:21.898Z,25.38
2016-08-05T12:36:21.923Z,25.33
2016-08-05T12:37:21.959Z,25.33
2016-08-05T12:38:21.996Z,25.42
2016-08-05T12:39:22.022Z,25.4
2016-08-05T12:40:36.977Z,25.1
2016-08-05T12:41:22.087Z,25.21
2016-08-05T12:42:37.046Z,25.35
2016-08-05T12:43:22.141Z,25.38
2016-08-05T12:44:37.095Z,25.32
2016-08-05T12:45:22.206Z,25.24
2016-08-05T12:46:22.230Z,25.13
2016-08-05T12:47:22.262Z,25.15
2016-08-05T12:48:22.296Z,25.09
2016-08-05T12:49:22.320Z,25.02
2016-08-05T12:50:22.357Z,24.88
2016-08-05T12:52:22.419Z,24.52
2016-08-05T12:53:37.371Z,24.42
2016-08-05T12:54:22.470Z,24.4
2016-08-05T12:55:22.500Z,24.16
2016-08-05T12:56:37.474Z,24.06
2016-08-05T12:57:37.500Z,23.85
2016-08-05T12:58:22.596Z,23.8
2016-08-05T12:59:22.621Z,23.79
2016-08-05T13:00:22.651Z,23.68
2016-08-05T13:01:23.380Z,23.48
2016-08-05T13:02:22.715Z,23.23
2016-08-05T13:03:22.740Z,23.27
2016-08-05T13:04:22.777Z,23.1
2016-08-05T13:05:37.733Z,23.02
2016-08-05T13:06:22.832Z,23
2016-08-05T13:07:22.864Z,22.98
2016-08-05T13:08:22.885Z,22.92
2016-08-05T13:09:22.924Z,22.9
2016-08-05T13:10:22.948Z,23.02
2016-08-05T13:11:22.977Z,22.94
2016-08-05T13:13:23.038Z,23
2016-08-05T13:14:23.067Z,23.12
2016-08-05T13:15:23.097Z,23.22
2016-08-05T13:17:23.204Z,23.39
2016-08-05T13:18:23.185Z,23.35
2016-08-05T13:19:23.213Z,23.33
2016-08-05T13:20:23.243Z,23.61
2016-08-05T13:21:23.271Z,23.57
2016-08-05T13:22:23.293Z,23.66
2016-08-05T13:23:23.339Z,23.6
2016-08-05T13:24:23.363Z,23.58
2016-08-05T13:25:23.389Z,23.73
2016-08-05T13:26:23.415Z,23.75
2016-08-05T13:28:23.474Z,23.93
2016-08-05T13:29:38.425Z,23.93
2016-08-05T13:30:23.534Z,23.69
2016-08-05T13:31:23.564Z,23.7
2016-08-05T13:32:23.588Z,23.76
2016-08-05T13:33:23.624Z,23.95
2016-08-05T13:35:23.677Z,24.25
2016-08-05T13:36:23.705Z,24.37
2016-08-05T13:37:23.745Z,24.34
2016-08-05T13:38:23.765Z,24.39
2016-08-05T13:39:23.799Z,24.28
2016-08-05T13:40:23.830Z,24.28
2016-08-05T13:41:23.851Z,24.3
2016-08-05T13:43:23.915Z,24.06
2016-08-05T13:44:23.949Z,23.97
2016-08-05T13:45:38.901Z,23.83
2016-08-05T13:46:24.055Z,23.87
2016-08-05T13:47:24.029Z,23.9
2016-08-05T13:49:24.092Z,23.93
2016-08-05T13:50:24.117Z,23.9
2016-08-05T13:51:24.155Z,23.94
2016-08-05T13:52:24.228Z,23.87
2016-08-05T13:53:24.208Z,23.68
2016-08-05T13:54:24.231Z,23.66
2016-08-05T13:55:24.960Z,23.69
2016-08-05T13:56:24.299Z,23.65